Data for 02/20/2009

Time Sea-Level Adjusted Pressure Absolute Pressure Temperature Relative Humidity Dew Point   
(mb) (inHg) (mb) (inHg) (C) (F) (%) (C) (F)
00:05 1017 30.03 846 24.98 1.6 34.8 37 -11.5 11.3
00:10 1017 30.03 846 24.98 1.4 34.5 37 -11.8 10.7
00:15 1017 30.03 846 24.98 1.5 34.8 35 -12.3 9.9
00:20 1017 30.03 846 24.98 2 35.6 34 -12.4 9.6
00:25 1017 30.03 846 24.98 2.4 36.3 32 -12.8 9
00:30 1017 30.03 846 24.98 2.9 37.2 29 -13.3 8.1
00:35 1017 30.03 846 24.98 3 37.4 30 -13.1 8.3
00:40 1017 30.03 846 24.98 2.9 37.2 30 -13.1 8.3
00:45 1017 30.03 846 24.98 2.8 37.1 31 -12.9 8.7
00:50 1017 30.03 846 24.98 2.7 36.9 32 -12.5 9.4
00:55 1017 30.03 846 24.98 2.6 36.6 33 -12.3 9.9
01:00 1017 30.03 846 24.98 2.5 36.4 32 -12.5 9.5
01:05 1017 30.03 846 24.98 2.2 36 35 -11.8 10.8
01:10 1017 30.03 846 24.98 1.8 35.2 36 -11.6 11
01:15 1017 30.03 846 24.98 1.7 35.1 33 -12.9 8.7
01:20 1017 30.03 846 24.98 2.1 35.7 31 -13.2 8.2
01:25 1017 30.03 846 24.98 2.4 36.2 31 -13.1 8.4
01:30 1017 30.03 846 24.98 2.4 36.3 34 -12 10.5
01:35 1017 30.03 846 24.98 1.9 35.4 38 -11.1 12.1
01:40 1017 30.03 846 24.98 1.4 34.5 39 -11.3 11.7
01:45 1017 30.03 846 24.98 1.2 34.2 40 -10.9 12.4
01:50 1017 30.03 846 24.98 1.1 33.9 42 -10.6 12.9
01:55 1016 30 846 24.98 0.9 33.6 41 -10.9 12.4
02:00 1017 30.03 846 24.98 0.9 33.6 42 -10.6 12.9
02:05 1017 30.03 846 24.98 0.8 33.4 43 -10.5 13.1
02:10 1016 30 846 24.98 0.7 33.2 43 -10.6 12.9
02:15 1016 30 846 24.98 0.7 33.2 44 -10.3 13.5
02:20 1017 30.03 846 24.98 0.5 33 45 -10.2 13.6
02:25 1017 30.03 846 24.98 0.4 32.7 45 -10.3 13.5
02:30 1016 30 846 24.98 0.3 32.6 44 -10.5 13.1
02:35 1016 30 846 24.98 0.3 32.6 44 -10.6 13
02:40 1016 30 846 24.98 0.3 32.6 43 -10.7 12.7
02:45 1016 30 846 24.98 0.3 32.6 44 -10.5 13
02:50 1016 30 845 24.95 0.3 32.6 43 -11 12.3
02:55 1016 30 845 24.95 0.3 32.6 44 -10.7 12.8
03:00 1016 30 845 24.95 0.2 32.4 43 -10.9 12.3
03:05 1016 30 845 24.95 0.2 32.3 41 -11.6 11.2
03:10 1016 30 845 24.95 0.3 32.6 40 -11.6 11.1
03:15 1016 30 845 24.95 0.4 32.7 40 -11.8 10.7
03:20 1016 30 845 24.95 0.5 32.9 38 -12.3 9.8
03:25 1016 30 845 24.95 0.5 32.9 39 -12 10.4
03:30 1016 30 845 24.95 0.5 32.9 38 -12.2 10.1
03:35 1016 30 845 24.95 0.4 32.7 38 -12.5 9.5
03:40 1016 30 845 24.95 0.4 32.7 38 -12.4 9.7
03:45 1016 30 845 24.95 0.3 32.5 39 -12.3 9.9
03:50 1016 30 845 24.95 0.2 32.3 39 -12.4 9.7
03:55 1016 30 845 24.95 0 32 39 -12.5 9.6
04:00 1016 30 845 24.95 0 32 38 -12.7 9.1
04:05 1016 30 845 24.95 0.2 32.3 37 -12.8 9
04:10 1016 30 845 24.95 0 32 38 -12.7 9.2
04:15 1016 30 845 24.95 -0 32 37 -13.1 8.5
04:20 1016 30 845 24.95 0.2 32.3 35 -13.4 7.9
04:25 1016 30 845 24.95 0.3 32.5 37 -12.9 8.8
04:30 1016 30 845 24.95 -0.1 31.9 38 -12.8 9
04:35 1016 30 845 24.95 -0.1 31.8 38 -12.8 9
04:40 1016 30 845 24.95 -0.2 31.6 40 -12.4 9.7
04:45 1016 30 845 24.95 -0.2 31.6 41 -11.9 10.6
04:50 1016 30 845 24.95 -0.7 30.7 44 -11.6 11.1
04:55 1016 30 845 24.95 -0.8 30.5 40 -12.7 9.2
05:00 1016 30 845 24.95 -0.4 31.3 41 -12.1 10.3
05:05 1016 30 845 24.95 -0.4 31.3 40 -12.3 9.9
05:10 1016 30 845 24.95 -0.3 31.4 41 -12 10.4
05:15 1016 30 845 24.95 -0.3 31.5 42 -11.8 10.8
05:20 1016 30 845 24.95 -0.1 31.7 41 -11.8 10.8
05:25 1016 30 845 24.95 -0 32 42 -11.5 11.3
05:30 1016 30 845 24.95 -0 32 42 -11.5 11.4
05:35 1016 30 845 24.95 0.1 32.2 42 -11.3 11.6
05:40 1016 30 845 24.95 0.2 32.3 42 -11.3 11.6
05:45 1016 30 845 24.95 0.2 32.4 42 -11.2 11.9
05:50 1016 30 845 24.95 0.2 32.4 43 -10.9 12.4
05:55 1016 30 845 24.95 0.2 32.3 43 -11 12.3
06:00 1016 30 845 24.95 0.1 32.2 44 -10.8 12.6
06:05 1016 30 845 24.95 0.1 32.2 45 -10.5 13.1
06:10 1016 30 845 24.95 0 32.1 45 -10.4 13.2
06:15 1016 30 845 24.95 0.1 32.2 44 -10.7 12.7
06:20 1016 30 845 24.95 0.4 32.7 44 -10.5 13.1
06:25 1016 30 845 24.95 0.4 32.6 43 -10.8 12.6
06:30 1016 30 845 24.95 0.1 32.1 44 -10.7 12.7
06:35 1016 30 845 24.95 0.1 32.3 44 -10.9 12.4
06:40 1016 30 845 24.95 0.2 32.4 42 -11.3 11.7
06:45 1016 30 845 24.95 0.4 32.7 41 -11.5 11.2
06:50 1016 30 845 24.95 0.4 32.8 40 -11.6 11.2
06:55 1016 30 845 24.95 0.4 32.6 40 -11.6 11.1
07:00 1016 30 845 24.95 0.4 32.7 40 -11.6 11.2
07:05 1016 30 845 24.95 0.5 32.9 40 -11.5 11.3
07:10 1016 30 845 24.95 0.5 33 41 -11.2 11.8
07:15 1016 30 845 24.95 0.6 33.1 41 -11.2 11.9
07:20 1016 30 846 24.98 0.6 33.1 41 -11.1 12
07:25 1016 30 846 24.98 0.6 33.1 41 -11.1 12
07:30 1016 30 846 24.98 0.6 33.1 42 -11 12.2
07:35 1017 30.03 846 24.98 0.7 33.2 42 -11 12.3
07:40 1017 30.03 846 24.98 0.6 33.1 42 -10.9 12.4
07:45 1017 30.03 846 24.98 0.6 33 42 -10.9 12.4
07:50 1017 30.03 846 24.98 0.5 32.8 43 -10.8 12.5
07:55 1017 30.03 846 24.98 0.4 32.7 43 -10.7 12.7
08:00 1017 30.03 846 24.98 0.3 32.6 43 -10.9 12.4
08:05 1017 30.03 846 24.98 0.3 32.5 43 -10.8 12.5
08:10 1017 30.03 846 24.98 0.4 32.7 43 -10.7 12.7
08:15 1017 30.03 846 24.98 0.4 32.7 44 -10.6 12.9
08:20 1017 30.03 846 24.98 0.4 32.8 44 -10.5 13.1
08:25 1017 30.03 846 24.98 0.5 32.9 43 -10.7 12.8
08:30 1017 30.03 846 24.98 0.5 33 43 -10.6 12.9
08:35 1017 30.03 847 25.01 0.5 32.9 43 -10.6 12.9
08:40 1018 30.06 847 25.01 0.6 33 43 -10.6 13
08:45 1018 30.06 847 25.01 0.5 33 43 -10.6 12.9
08:50 1018 30.06 847 25.01 0.5 33 43 -10.7 12.7
08:55 1018 30.06 847 25.01 0.5 32.9 44 -10.5 13.1
09:00 1018 30.06 847 25.01 0.4 32.7 47 -9.7 14.5
09:05 1018 30.06 847 25.01 -0 31.9 49 -9.5 14.9
09:10 1018 30.06 848 25.04 -0.2 31.6 51 -9.2 15.4
09:15 1018 30.06 848 25.04 -0.3 31.5 53 -8.7 16.4
09:20 1019 30.09 848 25.04 -0.3 31.4 56 -8 17.5
09:25 1019 30.09 848 25.04 -0.4 31.3 58 -7.8 18
09:30 1019 30.09 848 25.04 -0.4 31.3 59 -7.5 18.5
09:35 1019 30.09 848 25.04 -0.4 31.3 59 -7.4 18.7
09:40 1019 30.09 848 25.04 -0.4 31.2 60 -7.2 19.1
09:45 1019 30.09 848 25.04 -0.4 31.3 61 -7 19.3
09:50 1019 30.09 848 25.04 -0.3 31.4 61 -6.9 19.5
09:55 1019 30.09 848 25.04 -0.2 31.6 60 -7 19.4
10:00 1019 30.09 848 25.04 -0.1 31.8 59 -7.2 19.1
10:05 1019 30.09 848 25.04 -0 31.9 59 -7.1 19.2
10:10 1019 30.09 849 25.07 0 32.1 59 -7 19.4
10:15 1020 30.12 849 25.07 0.1 32.1 59 -7 19.4
10:20 1020 30.12 849 25.07 0 32 59 -7 19.4
10:25 1020 30.12 849 25.07 0.1 32.2 58 -7.2 19
10:30 1020 30.12 849 25.07 0.2 32.4 57 -7.3 18.8
10:35 1020 30.12 849 25.07 0.3 32.5 56 -7.6 18.4
10:40 1020 30.12 849 25.07 0.3 32.5 57 -7.3 18.9
10:45 1020 30.12 849 25.07 0.4 32.7 58 -6.8 19.7
10:50 1020 30.12 849 25.07 0.2 32.4 59 -6.8 19.7
10:55 1020 30.12 849 25.07 0.1 32.3 59 -7 19.4
11:00 1020 30.12 849 25.07 0.3 32.5 56 -7.6 18.3
11:05 1020 30.12 849 25.07 0.1 32.1 56 -7.6 18.4
11:10 1020 30.12 849 25.07 -0 32 56 -7.7 18.2
11:15 1020 30.12 849 25.07 0 32.1 57 -7.5 18.4
11:20 1020 30.12 850 25.1 0 32.1 57 -7.4 18.6
11:25 1020 30.12 850 25.1 -0 32 58 -7.4 18.7
11:30 1020 30.12 850 25.1 0.1 32.1 57 -7.4 18.7
11:35 1021 30.15 850 25.1 -0.1 31.9 58 -7.4 18.6
11:40 1021 30.15 850 25.1 -0.2 31.6 57 -7.8 17.9
11:45 1021 30.15 850 25.1 -0.3 31.5 56 -8.1 17.4
11:50 1021 30.15 850 25.1 -0.1 31.8 55 -8 17.6
11:55 1021 30.15 850 25.1 -0.3 31.4 56 -8.2 17.3
12:00 1021 30.15 850 25.1 -0.3 31.5 56 -8.1 17.5
12:05 1021 30.15 850 25.1 -0.3 31.5 56 -8 17.7
12:10 1021 30.15 850 25.1 -0.1 31.8 56 -8 17.6
12:15 1021 30.15 850 25.1 0.3 32.5 53 -8.2 17.2
12:20 1021 30.15 850 25.1 0.6 33.2 50 -8.7 16.3
12:25 1021 30.15 850 25.1 1 33.8 50 -8.3 17
12:30 1021 30.15 850 25.1 1.1 34 48 -8.7 16.4
12:35 1021 30.15 850 25.1 1.5 34.6 49 -8.2 17.2
12:40 1021 30.15 850 25.1 1.1 34 50 -8.3 17.1
12:45 1021 30.15 850 25.1 1.3 34.3 47 -8.9 16
12:50 1021 30.15 850 25.1 2.2 35.9 43 -9.1 15.7
12:55 1021 30.15 850 25.1 2.1 35.8 43 -9.1 15.7
13:00 1021 30.15 850 25.1 2.2 36 44 -8.8 16.2
13:05 1021 30.15 850 25.1 2.5 36.5 42 -9.2 15.5
13:10 1021 30.15 851 25.13 2 35.6 44 -9.1 15.6
13:15 1021 30.15 851 25.13 1.9 35.4 45 -8.8 16.1
13:20 1021 30.15 851 25.13 2 35.5 43 -9.5 14.9
13:25 1021 30.15 851 25.13 1.9 35.4 44 -9.1 15.6
13:30 1021 30.15 851 25.13 2.3 36.1 43 -9.1 15.6
13:35 1021 30.15 851 25.13 2.7 36.8 42 -8.9 16
13:40 1021 30.15 851 25.13 2 35.7 44 -9.1 15.7
13:45 1021 30.15 851 25.13 2 35.7 45 -8.8 16.2
13:50 1021 30.15 851 25.13 1.9 35.4 45 -8.9 16
13:55 1021 30.15 851 25.13 1.9 35.4 44 -9.2 15.5
14:00 1022 30.18 851 25.13 2.2 35.9 44 -8.9 16
14:05 1022 30.18 851 25.13 2.3 36.1 44 -8.8 16.1
14:10 1022 30.18 851 25.13 2 35.5 44 -9 15.7
14:15 1022 30.18 851 25.13 1.9 35.4 44 -9 15.8
14:20 1022 30.18 851 25.13 1.3 34.4 45 -9.4 15
14:25 1022 30.18 851 25.13 1.8 35.2 44 -9.1 15.6
14:30 1022 30.18 851 25.13 2.4 36.3 43 -9 15.7
14:35 1022 30.18 851 25.13 2.4 36.3 44 -8.7 16.4
14:40 1022 30.18 851 25.13 2.1 35.8 43 -9.1 15.6
14:45 1022 30.18 851 25.13 2.2 36 42 -9.4 15.2
14:50 1022 30.18 851 25.13 2.6 36.6 41 -9.3 15.2
14:55 1022 30.18 851 25.13 2.2 35.9 43 -9 15.7
15:00 1022 30.18 851 25.13 1.9 35.4 44 -9.1 15.6
15:05 1022 30.18 851 25.13 1.2 34.2 45 -9.5 15
15:10 1022 30.18 851 25.13 1.9 35.4 44 -9.2 15.5
15:15 1022 30.18 851 25.13 2.3 36.1 42 -9.2 15.4
15:20 1022 30.18 851 25.13 2 35.7 44 -9.1 15.7
15:25 1022 30.18 851 25.13 1.6 34.8 44 -9.4 15.1
15:30 1022 30.18 851 25.13 1.7 35 44 -9.4 15.1
15:35 1022 30.18 851 25.13 1.7 35 44 -9.3 15.3
15:40 1022 30.18 851 25.13 1.6 34.9 44 -9.4 15.1
15:45 1022 30.18 851 25.13 2 35.5 42 -9.5 14.8
15:50 1022 30.18 851 25.13 1.9 35.5 43 -9.4 15.1
15:55 1022 30.18 851 25.13 1.9 35.5 43 -9.5 14.9
16:00 1022 30.18 851 25.13 2 35.6 43 -9.3 15.2
16:05 1022 30.18 851 25.13 1.6 34.9 46 -8.9 16
16:10 1022 30.18 851 25.13 1.1 33.9 45 -9.7 14.6
16:15 1022 30.18 851 25.13 1.6 35 43 -9.6 14.8
16:20 1022 30.18 851 25.13 1.8 35.2 44 -9.2 15.4
16:25 1022 30.18 851 25.13 1.2 34.1 45 -9.6 14.8
16:30 1022 30.18 851 25.13 1.2 34.2 44 -9.6 14.7
16:35 1022 30.18 851 25.13 1.5 34.6 44 -9.6 14.6
16:40 1022 30.18 851 25.13 1.7 35 44 -9.3 15.2
16:45 1022 30.18 851 25.13 1.9 35.4 42 -9.8 14.4
16:50 1022 30.18 851 25.13 1.9 35.4 42 -9.8 14.4
16:55 1022 30.18 851 25.13 2.3 36.1 40 -9.8 14.3
17:00 1022 30.18 851 25.13 1.6 34.8 44 -9.5 15
17:05 1022 30.18 851 25.13 1.3 34.3 45 -9.3 15.2
17:10 1022 30.18 851 25.13 0.7 33.3 47 -9.4 15
17:15 1022 30.18 851 25.13 0.6 33.1 47 -9.4 15.1
17:20 1022 30.18 851 25.13 0.8 33.4 47 -9.3 15.2
17:25 1022 30.18 851 25.13 0.4 32.7 48 -9.5 14.8
17:30 1022 30.18 851 25.13 0 32 48 -9.8 14.4
17:35 1022 30.18 851 25.13 -0.1 31.9 49 -9.5 14.8
17:40 1022 30.18 851 25.13 -0.1 31.8 49 -9.5 14.9
17:45 1022 30.18 851 25.13 -0.4 31.3 51 -9.4 15.1
17:50 1022 30.18 851 25.13 -0.7 30.8 52 -9.4 15
17:55 1021 30.15 851 25.13 -0.7 30.7 52 -9.5 14.9
18:00 1022 30.18 851 25.13 -0.9 30.4 52 -9.5 14.9
18:05 1021 30.15 851 25.13 -1 30.1 54 -9.2 15.4
18:10 1021 30.15 851 25.13 -1.1 29.9 54 -9.3 15.3
18:15 1021 30.15 851 25.13 -1.2 29.9 54 -9.4 15.1
18:20 1021 30.15 850 25.1 -1.2 29.9 54 -9.3 15.3
18:25 1021 30.15 851 25.13 -1.4 29.5 55 -9.3 15.3
18:30 1021 30.15 851 25.13 -1.5 29.3 55 -9.4 15.2
18:35 1021 30.15 851 25.13 -1.6 29.2 56 -9.2 15.4
18:40 1021 30.15 851 25.13 -1.7 28.9 57 -9.1 15.5
18:45 1021 30.15 851 25.13 -1.9 28.6 60 -8.7 16.3
18:50 1021 30.15 851 25.13 -2.3 27.9 61 -8.8 16.2
18:55 1021 30.15 851 25.13 -2.5 27.5 61 -9 15.7
19:00 1022 30.18 851 25.13 -2.5 27.4 60 -9.4 15.2
19:05 1022 30.18 851 25.13 -2.6 27.4 60 -9.3 15.3
19:10 1022 30.18 851 25.13 -2.8 27 61 -9.2 15.4
19:15 1022 30.18 851 25.13 -3 26.5 62 -9.3 15.3
19:20 1022 30.18 851 25.13 -3.2 26.2 63 -9.2 15.5
19:25 1022 30.18 851 25.13 -3.3 26 64 -9.2 15.4
19:30 1022 30.18 851 25.13 -3.4 25.9 64 -9.4 15.1
19:35 1022 30.18 851 25.13 -3.5 25.7 64 -9.4 15.2
19:40 1022 30.18 851 25.13 -3.5 25.8 63 -9.5 14.9
19:45 1022 30.18 851 25.13 -3.4 25.9 63 -9.5 14.9
19:50 1022 30.18 851 25.13 -3.5 25.8 64 -9.3 15.3
19:55 1022 30.18 851 25.13 -3.7 25.4 65 -9.3 15.3
20:00 1022 30.18 851 25.13 -3.7 25.3 66 -9.2 15.5
20:05 1022 30.18 851 25.13 -3.8 25.1 66 -9.2 15.4
20:10 1022 30.18 851 25.13 -4 24.9 67 -9.2 15.4
20:15 1022 30.18 851 25.13 -4.2 24.5 68 -9.3 15.3
20:20 1022 30.18 851 25.13 -4.2 24.4 68 -9.3 15.2
20:25 1022 30.18 851 25.13 -4.2 24.4 68 -9.4 15.2
20:30 1022 30.18 851 25.13 -4.3 24.3 68 -9.4 15.1
20:35 1022 30.18 851 25.13 -4.3 24.3 68 -9.4 15.1
20:40 1022 30.18 851 25.13 -4.3 24.2 67 -9.5 15
20:45 1022 30.18 851 25.13 -4.3 24.3 67 -9.5 14.9
20:50 1022 30.18 851 25.13 -4.3 24.2 68 -9.5 15
20:55 1022 30.18 851 25.13 -4.4 24.2 67 -9.5 14.8
21:00 1022 30.18 851 25.13 -4.5 24 68 -9.5 14.9
21:05 1022 30.18 851 25.13 -4.6 23.7 68 -9.6 14.7
21:10 1022 30.18 851 25.13 -4.7 23.6 68 -9.7 14.6
21:15 1022 30.18 851 25.13 -4.9 23.2 68 -9.9 14.1
21:20 1022 30.18 851 25.13 -5 23.1 67 -10.2 13.7
21:25 1022 30.18 851 25.13 -5 23 67 -10.1 13.8
21:30 1022 30.18 851 25.13 -4.9 23.2 67 -10.1 13.9
21:35 1022 30.18 851 25.13 -4.8 23.4 67 -10 14
21:40 1022 30.18 851 25.13 -4.8 23.3 67 -10 14
21:45 1022 30.18 851 25.13 -4.9 23.2 68 -10 14
21:50 1022 30.18 851 25.13 -5 23.1 67 -10.2 13.7
21:55 1022 30.18 851 25.13 -4.9 23.1 67 -10.2 13.7
22:00 1022 30.18 851 25.13 -5 23.1 66 -10.3 13.5
22:05 1022 30.18 851 25.13 -4.8 23.4 65 -10.4 13.2
22:10 1022 30.18 851 25.13 -4.7 23.6 65 -10.4 13.4
22:15 1022 30.18 851 25.13 -4.7 23.5 65 -10.3 13.5
22:20 1022 30.18 851 25.13 -4.9 23.2 67 -10.2 13.7
22:25 1022 30.18 851 25.13 -5 22.9 67 -10.2 13.6
22:30 1022 30.18 851 25.13 -5.1 22.9 67 -10.3 13.4
22:35 1022 30.18 851 25.13 -5 23 66 -10.5 13.2
22:40 1022 30.18 851 25.13 -5.1 22.9 66 -10.4 13.3
22:45 1022 30.18 851 25.13 -5.1 22.7 66 -10.5 13.2
22:50 1022 30.18 851 25.13 -5.2 22.7 67 -10.4 13.2
22:55 1022 30.18 851 25.13 -5.4 22.3 68 -10.5 13.2
23:00 1022 30.18 851 25.13 -5.4 22.3 68 -10.4 13.3
23:05 1022 30.18 851 25.13 -5.6 21.9 69 -10.4 13.2
23:10 1022 30.18 851 25.13 -5.8 21.6 69 -10.5 13.1
23:15 1022 30.18 851 25.13 -5.8 21.5 69 -10.6 12.9
23:20 1022 30.18 851 25.13 -5.9 21.4 69 -10.6 12.9
23:25 1022 30.18 851 25.13 -6 21.2 70 -10.7 12.7
23:30 1022 30.18 851 25.13 -5.8 21.5 67 -11 12.3
23:35 1022 30.18 851 25.13 -5.7 21.8 67 -10.8 12.6
23:40 1022 30.18 851 25.13 -5.8 21.5 69 -10.7 12.8
23:45 1022 30.18 851 25.13 -6.1 21.1 70 -10.7 12.8
23:50 1022 30.18 851 25.13 -5.8 21.5 68 -10.9 12.3
23:55 1022 30.18 851 25.13 -5.6 21.9 67 -10.8 12.6
24:00 1022 30.18 851 25.13 -5.8 21.5 69 -10.7 12.8